createdAt,value
2017-05-07T00:00:40.258Z,0
2017-05-07T00:01:40.900Z,0
2017-05-07T00:02:41.543Z,0
2017-05-07T00:03:42.179Z,0
2017-05-07T00:04:42.822Z,0
2017-05-07T00:05:43.465Z,0
2017-05-07T00:06:44.556Z,0
2017-05-07T00:07:45.191Z,0
2017-05-07T00:08:45.831Z,0
2017-05-07T00:09:46.472Z,0
2017-05-07T00:10:47.115Z,0
2017-05-07T00:11:47.764Z,0
2017-05-07T00:12:48.400Z,0
2017-05-07T00:13:49.042Z,0
2017-05-07T00:14:49.833Z,0
2017-05-07T00:15:50.474Z,0
2017-05-07T00:16:51.116Z,0
2017-05-07T00:17:51.759Z,0
2017-05-07T00:18:52.400Z,0
2017-05-07T00:19:53.040Z,0
2017-05-07T00:20:53.686Z,0
2017-05-07T00:21:54.383Z,0
2017-05-07T00:22:55.225Z,0
2017-05-07T00:23:55.866Z,0
2017-05-07T00:24:56.507Z,0
2017-05-07T00:25:57.148Z,0
2017-05-07T00:26:57.788Z,0
2017-05-07T00:27:58.433Z,0
2017-05-07T00:28:59.071Z,0
2017-05-07T00:29:59.718Z,0
2017-05-07T00:31:00.355Z,0
2017-05-07T00:32:01.191Z,0
2017-05-07T00:33:01.834Z,0
2017-05-07T00:34:02.471Z,0
2017-05-07T00:35:03.117Z,0
2017-05-07T00:36:03.816Z,0
2017-05-07T00:37:04.456Z,0
2017-05-07T00:38:05.093Z,0
2017-05-07T00:39:05.735Z,0
2017-05-07T00:40:06.578Z,0
2017-05-07T00:41:07.221Z,0
2017-05-07T00:42:07.861Z,0
2017-05-07T00:43:08.502Z,0
2017-05-07T00:44:09.141Z,0
2017-05-07T00:45:09.784Z,0
2017-05-07T00:46:10.425Z,0
2017-05-07T00:47:11.065Z,0
2017-05-07T00:48:11.911Z,0
2017-05-07T00:49:12.551Z,0
2017-05-07T00:50:13.190Z,0
2017-05-07T00:51:13.831Z,0
2017-05-07T00:52:14.474Z,0
2017-05-07T00:53:15.116Z,0
2017-05-07T00:54:15.756Z,0
2017-05-07T00:55:16.401Z,0
2017-05-07T00:56:17.245Z,0
2017-05-07T00:57:17.887Z,0
2017-05-07T00:58:18.527Z,0
2017-05-07T00:59:19.165Z,0
2017-05-07T01:00:19.808Z,0
2017-05-07T01:01:20.453Z,0
2017-05-07T01:02:21.092Z,0
2017-05-07T01:03:21.736Z,0
2017-05-07T01:04:22.376Z,0
2017-05-07T01:05:23.219Z,0
2017-05-07T01:06:23.861Z,0
2017-05-07T01:07:24.504Z,0
2017-05-07T01:08:25.146Z,0
2017-05-07T01:09:25.819Z,0
2017-05-07T01:10:26.627Z,0
2017-05-07T01:11:27.269Z,0
2017-05-07T01:12:27.908Z,0
2017-05-07T01:13:28.747Z,0
2017-05-07T01:14:29.391Z,0
2017-05-07T01:15:30.038Z,0
2017-05-07T01:16:30.678Z,0
2017-05-07T01:17:31.319Z,0
2017-05-07T01:18:31.959Z,0
2017-05-07T01:19:32.602Z,0
2017-05-07T01:20:33.243Z,0
2017-05-07T01:21:34.084Z,0
2017-05-07T01:22:34.722Z,0
2017-05-07T01:23:35.363Z,0
2017-05-07T01:24:36.003Z,0
2017-05-07T01:25:36.647Z,0
2017-05-07T01:26:37.289Z,0
2017-05-07T01:27:37.935Z,0
2017-05-07T01:28:38.633Z,0
2017-05-07T01:29:39.274Z,0
2017-05-07T01:30:39.915Z,0
2017-05-07T01:31:40.554Z,0
2017-05-07T01:32:41.196Z,0
2017-05-07T01:33:41.842Z,0
2017-05-07T01:34:42.481Z,0
2017-05-07T01:35:43.127Z,0
2017-05-07T01:36:43.767Z,0
2017-05-07T01:37:44.605Z,0
2017-05-07T01:38:45.248Z,0
2017-05-07T01:39:45.884Z,0
2017-05-07T01:40:46.528Z,0
2017-05-07T01:41:47.170Z,0
2017-05-07T01:42:47.810Z,0
2017-05-07T01:43:48.453Z,0
2017-05-07T01:44:49.093Z,0
2017-05-07T01:45:49.737Z,0
2017-05-07T01:46:50.573Z,0
2017-05-07T01:47:51.217Z,0
2017-05-07T01:48:51.858Z,0
2017-05-07T01:49:52.500Z,0
2017-05-07T01:50:53.141Z,0
2017-05-07T01:51:53.781Z,0
2017-05-07T01:52:54.420Z,0
2017-05-07T01:53:55.054Z,0
2017-05-07T01:54:55.895Z,0
2017-05-07T01:55:56.535Z,0
2017-05-07T01:56:57.174Z,0
2017-05-07T01:57:57.815Z,0
2017-05-07T01:58:58.452Z,0
2017-05-07T01:59:59.093Z,0
2017-05-07T02:00:59.734Z,0
2017-05-07T02:02:00.370Z,0
2017-05-07T02:03:01.160Z,0
2017-05-07T02:04:01.801Z,0
2017-05-07T02:05:02.437Z,0
2017-05-07T02:06:03.077Z,0
2017-05-07T02:07:03.719Z,0
2017-05-07T02:08:04.359Z,0
2017-05-07T02:09:04.998Z,0
2017-05-07T02:10:05.635Z,0
2017-05-07T02:11:06.480Z,0
2017-05-07T02:12:07.120Z,0
2017-05-07T02:13:07.758Z,0
2017-05-07T02:14:08.400Z,0
2017-05-07T02:15:09.036Z,0
2017-05-07T02:16:09.677Z,0
2017-05-07T02:17:10.319Z,0
2017-05-07T02:18:10.965Z,0
2017-05-07T02:19:11.604Z,0
2017-05-07T02:20:12.445Z,0
2017-05-07T02:21:13.087Z,0
2017-05-07T02:22:13.731Z,0
2017-05-07T02:23:14.368Z,0
2017-05-07T02:24:15.011Z,0
2017-05-07T02:25:15.646Z,0
2017-05-07T02:26:16.282Z,0
2017-05-07T02:27:16.923Z,0
2017-05-07T02:28:17.762Z,0
2017-05-07T02:29:18.401Z,0
2017-05-07T02:30:19.043Z,0
2017-05-07T02:31:19.686Z,0
2017-05-07T02:32:20.323Z,0
2017-05-07T02:33:20.959Z,0
2017-05-07T02:34:21.594Z,0
2017-05-07T02:35:22.234Z,0
2017-05-07T02:36:23.073Z,0
2017-05-07T02:37:23.716Z,0
2017-05-07T02:38:24.357Z,0
2017-05-07T02:39:25.003Z,0
2017-05-07T02:40:25.638Z,0
2017-05-07T02:41:26.280Z,0
2017-05-07T02:42:26.927Z,0
2017-05-07T02:43:27.562Z,0
2017-05-07T02:44:28.406Z,0
2017-05-07T02:45:29.050Z,0
2017-05-07T02:46:29.690Z,0
2017-05-07T02:47:30.329Z,0
2017-05-07T02:48:30.973Z,0
2017-05-07T02:49:31.616Z,0
2017-05-07T02:50:32.255Z,0
2017-05-07T02:51:32.900Z,0
2017-05-07T02:52:33.691Z,0
2017-05-07T02:53:34.333Z,0
2017-05-07T02:54:34.974Z,0
2017-05-07T02:55:35.613Z,0
2017-05-07T02:56:36.254Z,0
2017-05-07T02:57:36.894Z,0
2017-05-07T02:58:37.538Z,0
2017-05-07T02:59:38.178Z,0
2017-05-07T03:00:38.814Z,0
2017-05-07T03:01:39.656Z,0
2017-05-07T03:02:40.298Z,0
2017-05-07T03:03:40.941Z,0
2017-05-07T03:04:41.581Z,0
2017-05-07T03:05:42.221Z,0
2017-05-07T03:06:42.864Z,0
2017-05-07T03:07:43.506Z,0
2017-05-07T03:08:44.147Z,0
2017-05-07T03:09:45.240Z,0
2017-05-07T03:10:45.888Z,0
2017-05-07T03:11:46.521Z,0
2017-05-07T03:12:47.155Z,0
2017-05-07T03:13:47.799Z,0
2017-05-07T03:14:48.440Z,0
2017-05-07T03:15:49.082Z,0
2017-05-07T03:16:49.719Z,0
2017-05-07T03:17:50.659Z,0
2017-05-07T03:18:51.300Z,0
2017-05-07T03:19:51.941Z,0
2017-05-07T03:20:52.581Z,0
2017-05-07T03:21:53.225Z,0
2017-05-07T03:22:53.866Z,0
2017-05-07T03:23:54.511Z,0
2017-05-07T03:24:55.146Z,0
2017-05-07T03:25:55.988Z,0
2017-05-07T03:26:56.626Z,0
2017-05-07T03:27:57.271Z,0
2017-05-07T03:28:57.910Z,0
2017-05-07T03:29:58.552Z,0
2017-05-07T03:30:59.197Z,0
2017-05-07T03:31:59.836Z,0
2017-05-07T03:33:00.475Z,0
2017-05-07T03:34:01.122Z,0
2017-05-07T03:35:01.959Z,0
2017-05-07T03:36:02.603Z,0
2017-05-07T03:37:03.245Z,0
2017-05-07T03:38:03.887Z,0
2017-05-07T03:39:04.851Z,0
2017-05-07T03:40:05.488Z,0
2017-05-07T03:41:06.130Z,0
2017-05-07T03:42:06.771Z,0
2017-05-07T03:43:07.564Z,0
2017-05-07T03:44:08.205Z,0
2017-05-07T03:45:08.845Z,0
2017-05-07T03:46:09.484Z,0
2017-05-07T03:47:10.121Z,0
2017-05-07T03:48:10.762Z,0
2017-05-07T03:49:11.353Z,0
2017-05-07T03:50:11.992Z,0
2017-05-07T03:51:12.832Z,0
2017-05-07T03:52:13.468Z,0
2017-05-07T03:53:14.111Z,0
2017-05-07T03:54:14.752Z,0
2017-05-07T03:55:15.391Z,0
2017-05-07T03:56:16.031Z,0
2017-05-07T03:57:16.678Z,0
2017-05-07T03:58:17.311Z,0
2017-05-07T03:59:18.249Z,0
2017-05-07T04:00:18.892Z,0
2017-05-07T04:01:19.535Z,0
2017-05-07T04:02:20.176Z,0
2017-05-07T04:03:20.812Z,0
2017-05-07T04:04:21.454Z,0
2017-05-07T04:05:22.095Z,0
2017-05-07T04:06:22.738Z,0
2017-05-07T04:07:23.579Z,0
2017-05-07T04:08:24.220Z,0
2017-05-07T04:09:24.864Z,0
2017-05-07T04:10:25.503Z,0
2017-05-07T04:11:26.148Z,0
2017-05-07T04:12:26.786Z,0
2017-05-07T04:13:27.429Z,0
2017-05-07T04:14:28.071Z,0
2017-05-07T04:15:28.706Z,0
2017-05-07T04:16:29.543Z,0
2017-05-07T04:17:30.185Z,0
2017-05-07T04:18:30.823Z,0
2017-05-07T04:19:31.464Z,0
2017-05-07T04:20:32.105Z,0
2017-05-07T04:21:32.745Z,0
2017-05-07T04:22:33.396Z,0
2017-05-07T04:23:34.030Z,0
2017-05-07T04:24:34.823Z,0
2017-05-07T04:25:35.460Z,0
2017-05-07T04:26:36.102Z,0
2017-05-07T04:27:36.738Z,0
2017-05-07T04:28:37.379Z,0
2017-05-07T04:29:38.019Z,0
2017-05-07T04:30:38.659Z,0
2017-05-07T04:31:39.301Z,0
2017-05-07T04:32:41.293Z,0
2017-05-07T04:33:41.936Z,0
2017-05-07T04:34:42.577Z,0
2017-05-07T04:35:43.218Z,0
2017-05-07T04:36:43.860Z,0
2017-05-07T04:37:44.502Z,0
2017-05-07T04:38:45.138Z,0
2017-05-07T04:39:45.779Z,0
2017-05-07T04:40:46.565Z,0
2017-05-07T04:41:47.202Z,0
2017-05-07T04:42:47.841Z,0
2017-05-07T04:43:48.482Z,0
2017-05-07T04:44:49.119Z,0
2017-05-07T04:45:49.756Z,0
2017-05-07T04:46:50.395Z,0
2017-05-07T04:47:51.034Z,0
2017-05-07T04:48:51.670Z,0
2017-05-07T04:49:52.512Z,0
2017-05-07T04:50:53.155Z,0
2017-05-07T04:51:53.796Z,0
2017-05-07T04:52:54.436Z,0
2017-05-07T04:53:55.078Z,0
2017-05-07T04:54:55.717Z,0
2017-05-07T04:55:56.355Z,0
2017-05-07T04:56:56.995Z,0
2017-05-07T04:57:57.834Z,0
2017-05-07T04:58:58.479Z,0
2017-05-07T04:59:59.117Z,0
2017-05-07T05:00:59.758Z,0
2017-05-07T05:02:00.399Z,0
2017-05-07T05:03:01.039Z,0
2017-05-07T05:04:01.684Z,0
2017-05-07T05:05:02.325Z,0
2017-05-07T05:06:03.111Z,0
2017-05-07T05:07:03.755Z,0
2017-05-07T05:08:04.396Z,0
2017-05-07T05:09:05.038Z,0
2017-05-07T05:10:05.679Z,0
2017-05-07T05:11:06.318Z,0
2017-05-07T05:12:06.957Z,0
2017-05-07T05:13:07.599Z,0
2017-05-07T05:14:08.440Z,0
2017-05-07T05:15:09.085Z,0
2017-05-07T05:16:10.047Z,0
2017-05-07T05:17:10.690Z,0
2017-05-07T05:18:11.329Z,0
2017-05-07T05:19:11.969Z,0
2017-05-07T05:20:12.609Z,0
2017-05-07T05:21:13.245Z,0
2017-05-07T05:22:14.083Z,0
2017-05-07T05:23:14.724Z,0
2017-05-07T05:24:15.364Z,0
2017-05-07T05:25:16.002Z,0
2017-05-07T05:26:16.643Z,0
2017-05-07T05:27:17.285Z,0
2017-05-07T05:28:17.925Z,0
2017-05-07T05:29:18.574Z,0
2017-05-07T05:30:19.214Z,0
2017-05-07T05:31:20.103Z,0
2017-05-07T05:32:20.746Z,0
2017-05-07T05:33:21.387Z,0
2017-05-07T05:34:22.025Z,0
2017-05-07T05:35:22.666Z,0
2017-05-07T05:36:23.306Z,0
2017-05-07T05:37:23.945Z,0
2017-05-07T05:38:24.587Z,0
2017-05-07T05:39:25.577Z,0
2017-05-07T05:40:26.215Z,0
2017-05-07T05:41:26.807Z,0
2017-05-07T05:42:27.448Z,0
2017-05-07T05:43:28.089Z,0
2017-05-07T05:44:28.797Z,0
2017-05-07T05:45:29.491Z,0
2017-05-07T05:46:30.126Z,0
2017-05-07T05:47:31.017Z,0
2017-05-07T05:48:31.658Z,0
2017-05-07T05:49:32.301Z,0
2017-05-07T05:50:32.944Z,0
2017-05-07T05:51:33.582Z,0
2017-05-07T05:52:34.224Z,0
2017-05-07T05:53:34.858Z,0
2017-05-07T05:54:35.499Z,0
2017-05-07T05:55:36.292Z,0
2017-05-07T05:56:36.934Z,0
2017-05-07T05:57:37.569Z,0
2017-05-07T05:58:38.215Z,0
2017-05-07T05:59:38.859Z,0
2017-05-07T06:00:39.494Z,0
2017-05-07T06:01:40.137Z,0
2017-05-07T06:02:40.783Z,0
2017-05-07T06:03:41.433Z,0
2017-05-07T06:04:42.255Z,0
2017-05-07T06:05:42.897Z,0
2017-05-07T06:06:43.537Z,0
2017-05-07T06:07:44.182Z,0
2017-05-07T06:08:44.817Z,0
2017-05-07T06:09:45.463Z,0
2017-05-07T06:10:46.105Z,0
2017-05-07T06:11:46.741Z,0
2017-05-07T06:12:47.583Z,0
2017-05-07T06:13:48.227Z,0
2017-05-07T06:14:48.867Z,0
2017-05-07T06:15:49.510Z,0
2017-05-07T06:16:50.150Z,0
2017-05-07T06:17:50.791Z,0
2017-05-07T06:18:51.431Z,0
2017-05-07T06:19:52.073Z,0
2017-05-07T06:20:52.912Z,0
2017-05-07T06:21:53.555Z,0
2017-05-07T06:22:54.191Z,0
2017-05-07T06:23:54.832Z,0
2017-05-07T06:24:55.474Z,0
2017-05-07T06:25:56.115Z,0
2017-05-07T06:26:56.757Z,0
2017-05-07T06:27:57.396Z,0
2017-05-07T06:28:58.239Z,0
2017-05-07T06:29:58.877Z,0
2017-05-07T06:30:59.520Z,0
2017-05-07T06:32:00.163Z,0
2017-05-07T06:33:00.753Z,0
2017-05-07T06:34:01.394Z,0
2017-05-07T06:35:02.036Z,0
2017-05-07T06:36:02.675Z,0
2017-05-07T06:37:03.513Z,0
2017-05-07T06:38:04.154Z,0
2017-05-07T06:39:04.793Z,0
2017-05-07T06:40:05.427Z,0
2017-05-07T06:41:06.070Z,0
2017-05-07T06:42:06.706Z,0
2017-05-07T06:43:07.349Z,0
2017-05-07T06:44:07.988Z,0
2017-05-07T06:45:08.628Z,0
2017-05-07T06:46:09.419Z,0
2017-05-07T06:47:10.059Z,0
2017-05-07T06:48:10.701Z,0
2017-05-07T06:49:11.343Z,0
2017-05-07T06:50:11.985Z,0
2017-05-07T06:51:12.628Z,0
2017-05-07T06:52:13.269Z,0
2017-05-07T06:53:13.908Z,0
2017-05-07T06:54:14.750Z,0
2017-05-07T06:55:15.392Z,0
2017-05-07T06:56:16.036Z,0
2017-05-07T06:57:16.671Z,0
2017-05-07T06:58:17.312Z,0
2017-05-07T06:59:17.952Z,0
2017-05-07T07:00:18.594Z,0
2017-05-07T07:01:19.231Z,0
2017-05-07T07:02:20.019Z,0
2017-05-07T07:03:20.655Z,0
2017-05-07T07:04:21.297Z,0
2017-05-07T07:05:21.940Z,0
2017-05-07T07:06:22.578Z,0
2017-05-07T07:07:23.220Z,0
2017-05-07T07:08:23.862Z,0
2017-05-07T07:09:24.499Z,0
2017-05-07T07:10:25.340Z,0
2017-05-07T07:11:25.983Z,0
2017-05-07T07:12:26.623Z,0
2017-05-07T07:13:27.265Z,0
2017-05-07T07:14:27.906Z,0
2017-05-07T07:15:28.548Z,0
2017-05-07T07:16:29.190Z,0
2017-05-07T07:17:29.830Z,0
2017-05-07T07:18:30.468Z,0
2017-05-07T07:19:31.261Z,0
2017-05-07T07:20:31.897Z,0
2017-05-07T07:21:32.538Z,0
2017-05-07T07:22:33.179Z,0
2017-05-07T07:23:33.818Z,0
2017-05-07T07:24:34.461Z,0
2017-05-07T07:25:35.103Z,0
2017-05-07T07:26:35.745Z,0
2017-05-07T07:27:36.580Z,0
2017-05-07T07:28:37.223Z,0
2017-05-07T07:29:37.867Z,0
2017-05-07T07:30:38.534Z,0
2017-05-07T07:31:39.147Z,0
2017-05-07T07:32:39.789Z,0
2017-05-07T07:33:40.430Z,0
2017-05-07T07:34:41.070Z,0
2017-05-07T07:35:41.857Z,0
2017-05-07T07:36:42.499Z,0
2017-05-07T07:37:43.138Z,0
2017-05-07T07:38:43.782Z,0
2017-05-07T07:39:44.420Z,0
2017-05-07T07:40:45.058Z,0
2017-05-07T07:41:45.697Z,0
2017-05-07T07:42:46.334Z,0
2017-05-07T07:43:47.177Z,0
2017-05-07T07:44:47.813Z,0
2017-05-07T07:45:48.454Z,0
2017-05-07T07:46:49.096Z,0
2017-05-07T07:47:49.739Z,0
2017-05-07T07:48:50.381Z,0
2017-05-07T07:49:51.023Z,0
2017-05-07T07:50:51.665Z,0
2017-05-07T07:51:52.457Z,0
2017-05-07T07:52:53.095Z,0
2017-05-07T07:53:53.738Z,0
2017-05-07T07:54:54.377Z,0
2017-05-07T07:55:55.014Z,0
2017-05-07T07:56:55.654Z,0
2017-05-07T07:57:56.297Z,0
2017-05-07T07:58:56.935Z,0
2017-05-07T07:59:57.578Z,0
2017-05-07T08:00:58.518Z,0
2017-05-07T08:01:59.152Z,0
2017-05-07T08:02:59.796Z,0
2017-05-07T08:04:00.436Z,0
2017-05-07T08:05:01.079Z,0
2017-05-07T08:06:01.721Z,0
2017-05-07T08:07:02.363Z,0
2017-05-07T08:08:03.003Z,0
2017-05-07T08:09:03.793Z,0
2017-05-07T08:10:04.438Z,0
2017-05-07T08:11:05.078Z,0
2017-05-07T08:12:05.718Z,0
2017-05-07T08:13:06.360Z,0
2017-05-07T08:14:07.062Z,45
2017-05-07T08:15:07.708Z,80
2017-05-07T08:16:08.352Z,80
2017-05-07T08:17:09.195Z,85
2017-05-07T08:18:09.840Z,85
2017-05-07T08:19:10.482Z,85
2017-05-07T08:20:11.129Z,85
2017-05-07T08:21:11.774Z,85
2017-05-07T08:22:12.420Z,85
2017-05-07T08:23:13.067Z,85
2017-05-07T08:24:13.711Z,85
2017-05-07T08:25:14.559Z,85
2017-05-07T08:26:15.204Z,85
2017-05-07T08:27:15.854Z,85
2017-05-07T08:28:16.498Z,90
2017-05-07T08:29:17.143Z,90
2017-05-07T08:30:17.785Z,90
2017-05-07T08:31:18.422Z,90
2017-05-07T08:32:19.068Z,90
2017-05-07T08:33:19.710Z,95
2017-05-07T08:34:20.554Z,95
2017-05-07T08:35:21.196Z,95
2017-05-07T08:36:21.838Z,95
2017-05-07T08:37:22.487Z,100
2017-05-07T08:38:23.129Z,100
2017-05-07T08:39:23.777Z,100
2017-05-07T08:40:24.421Z,100
2017-05-07T08:41:25.066Z,105
2017-05-07T08:42:25.861Z,105
2017-05-07T08:43:26.507Z,105
2017-05-07T08:44:27.148Z,110
2017-05-07T08:45:27.792Z,110
2017-05-07T08:46:28.437Z,115
2017-05-07T08:47:29.090Z,115
2017-05-07T08:48:29.726Z,115
2017-05-07T08:49:30.372Z,110
2017-05-07T08:50:31.214Z,115
2017-05-07T08:51:31.859Z,115
2017-05-07T08:52:32.504Z,115
2017-05-07T08:53:33.149Z,115
2017-05-07T08:54:33.794Z,110
2017-05-07T08:55:34.440Z,115
2017-05-07T08:56:35.089Z,115
2017-05-07T08:57:35.735Z,115
2017-05-07T08:58:36.579Z,120
2017-05-07T08:59:37.224Z,120
2017-05-07T09:00:37.863Z,120
2017-05-07T09:01:38.508Z,125
2017-05-07T09:02:39.154Z,125
2017-05-07T09:03:39.798Z,120
2017-05-07T09:04:40.440Z,120
2017-05-07T09:05:41.084Z,115
2017-05-07T09:06:42.031Z,110
2017-05-07T09:07:42.676Z,110
2017-05-07T09:08:43.322Z,110
2017-05-07T09:09:43.966Z,110
2017-05-07T09:10:44.609Z,115
2017-05-07T09:11:45.252Z,115
2017-05-07T09:12:45.898Z,115
2017-05-07T09:13:46.540Z,115
2017-05-07T09:14:47.186Z,115
2017-05-07T09:15:48.038Z,120
2017-05-07T09:16:48.679Z,120
2017-05-07T09:17:49.323Z,125
2017-05-07T09:18:49.967Z,130
2017-05-07T09:19:50.611Z,135
2017-05-07T09:20:51.256Z,140
2017-05-07T09:21:51.897Z,140
2017-05-07T09:22:52.547Z,145
2017-05-07T09:23:53.338Z,150
2017-05-07T09:24:53.984Z,155
2017-05-07T09:25:54.634Z,160
2017-05-07T09:26:55.278Z,165
2017-05-07T09:27:55.920Z,170
2017-05-07T09:28:56.560Z,170
2017-05-07T09:29:57.205Z,175
2017-05-07T09:30:57.850Z,175
2017-05-07T09:31:58.695Z,170
2017-05-07T09:32:59.341Z,165
2017-05-07T09:33:59.989Z,160
2017-05-07T09:35:00.633Z,160
2017-05-07T09:36:01.276Z,160
2017-05-07T09:37:01.926Z,150
2017-05-07T09:38:02.572Z,160
2017-05-07T09:39:03.218Z,170
2017-05-07T09:40:04.068Z,185
2017-05-07T09:41:04.710Z,190
2017-05-07T09:42:05.353Z,195
2017-05-07T09:43:05.997Z,195
2017-05-07T09:44:06.643Z,195
2017-05-07T09:45:07.288Z,195
2017-05-07T09:46:07.936Z,190
2017-05-07T09:47:08.577Z,190
2017-05-07T09:48:09.220Z,190
2017-05-07T09:49:10.064Z,190
2017-05-07T09:50:10.712Z,190
2017-05-07T09:51:11.358Z,190
2017-05-07T09:52:12.006Z,190
2017-05-07T09:53:12.652Z,190
2017-05-07T09:54:13.300Z,190
2017-05-07T09:55:13.950Z,185
2017-05-07T09:56:14.598Z,190
2017-05-07T09:57:15.445Z,190
2017-05-07T09:58:16.091Z,195
2017-05-07T09:59:16.736Z,195
2017-05-07T10:00:17.381Z,195
2017-05-07T10:01:18.023Z,180
2017-05-07T10:02:18.669Z,175
2017-05-07T10:03:19.316Z,185
2017-05-07T10:04:19.961Z,190
2017-05-07T10:05:20.758Z,190
2017-05-07T10:06:21.401Z,195
2017-05-07T10:07:22.103Z,190
2017-05-07T10:08:22.752Z,185
2017-05-07T10:09:23.400Z,185
2017-05-07T10:10:24.046Z,180
2017-05-07T10:11:24.690Z,180
2017-05-07T10:12:25.338Z,180
2017-05-07T10:13:26.180Z,180
2017-05-07T10:14:26.823Z,175
2017-05-07T10:15:27.470Z,160
2017-05-07T10:16:28.116Z,155
2017-05-07T10:17:28.762Z,165
2017-05-07T10:18:29.410Z,165
2017-05-07T10:19:30.054Z,170
2017-05-07T10:20:30.705Z,170
2017-05-07T10:21:31.497Z,175
2017-05-07T10:22:32.140Z,180
2017-05-07T10:23:32.785Z,185
2017-05-07T10:24:33.431Z,185
2017-05-07T10:25:34.074Z,190
2017-05-07T10:26:34.718Z,195
2017-05-07T10:27:35.369Z,210
2017-05-07T10:28:36.020Z,525
2017-05-07T10:29:36.672Z,1650
2017-05-07T10:30:37.526Z,2185
2017-05-07T10:31:38.176Z,2115
2017-05-07T10:32:38.832Z,2140
2017-05-07T10:33:39.484Z,2095
2017-05-07T10:34:40.135Z,2145
2017-05-07T10:35:40.788Z,2200
2017-05-07T10:36:41.446Z,2225
2017-05-07T10:37:42.101Z,2275
2017-05-07T10:38:42.906Z,2220
2017-05-07T10:39:43.566Z,2245
2017-05-07T10:40:44.221Z,2285
2017-05-07T10:41:44.878Z,2275
2017-05-07T10:42:45.535Z,2360
2017-05-07T10:43:46.198Z,2355
2017-05-07T10:44:46.857Z,2240
2017-05-07T10:45:47.511Z,2325
2017-05-07T10:46:48.374Z,2340
2017-05-07T10:47:49.031Z,2250
2017-05-07T10:48:49.693Z,2615
2017-05-07T10:49:50.356Z,2825
2017-05-07T10:50:51.019Z,2860
2017-05-07T10:51:51.680Z,2930
2017-05-07T10:52:52.340Z,2915
2017-05-07T10:53:52.947Z,2930
2017-05-07T10:54:53.814Z,2865
2017-05-07T10:55:54.480Z,2930
2017-05-07T10:56:55.142Z,3100
2017-05-07T10:57:55.807Z,3185
2017-05-07T10:58:56.472Z,3130
2017-05-07T10:59:57.137Z,3070
2017-05-07T11:00:57.805Z,3045
2017-05-07T11:01:58.472Z,3060
2017-05-07T11:02:59.140Z,3090
2017-05-07T11:03:59.951Z,3110
2017-05-07T11:05:00.618Z,3055
2017-05-07T11:06:01.283Z,3145
2017-05-07T11:07:01.953Z,3200
2017-05-07T11:08:02.615Z,3185
2017-05-07T11:09:03.280Z,3125
2017-05-07T11:10:03.947Z,3035
2017-05-07T11:11:04.612Z,3145
2017-05-07T11:12:05.479Z,3195
2017-05-07T11:13:06.150Z,3230
2017-05-07T11:14:06.815Z,3250
2017-05-07T11:15:07.483Z,3250
2017-05-07T11:16:08.155Z,3255
2017-05-07T11:17:08.820Z,3210
2017-05-07T11:18:09.491Z,3120
2017-05-07T11:19:10.158Z,3100
2017-05-07T11:20:10.976Z,3210
2017-05-07T11:21:11.639Z,3340
2017-05-07T11:22:12.309Z,3290
2017-05-07T11:23:12.976Z,3165
2017-05-07T11:24:13.646Z,3065
2017-05-07T11:25:14.317Z,3205
2017-05-07T11:26:14.989Z,3230
2017-05-07T11:27:15.659Z,3175
2017-05-07T11:28:16.530Z,3320
2017-05-07T11:29:17.199Z,3370
2017-05-07T11:30:17.869Z,3295
2017-05-07T11:31:18.539Z,3270
2017-05-07T11:32:19.205Z,3350
2017-05-07T11:33:19.875Z,3420
2017-05-07T11:34:20.545Z,3275
2017-05-07T11:35:21.209Z,3210
2017-05-07T11:36:22.131Z,3245
2017-05-07T11:37:22.799Z,3205
2017-05-07T11:38:23.470Z,3165
2017-05-07T11:39:24.137Z,3245
2017-05-07T11:40:24.806Z,3215
2017-05-07T11:41:25.474Z,3270
2017-05-07T11:42:26.144Z,3310
2017-05-07T11:43:26.813Z,3190
2017-05-07T11:44:27.480Z,3165
2017-05-07T11:45:28.400Z,3205
2017-05-07T11:46:29.068Z,3155
2017-05-07T11:47:29.738Z,3130
2017-05-07T11:48:30.406Z,3180
2017-05-07T11:49:31.075Z,3130
2017-05-07T11:50:31.743Z,3180
2017-05-07T11:51:32.411Z,3255
2017-05-07T11:52:33.033Z,3125
2017-05-07T11:53:33.901Z,180
2017-05-07T11:54:34.564Z,185
2017-05-07T11:55:35.231Z,195
2017-05-07T11:56:35.896Z,195
2017-05-07T11:57:36.562Z,190
2017-05-07T11:58:37.227Z,190
2017-05-07T11:59:37.892Z,190
2017-05-07T12:00:38.557Z,190
2017-05-07T12:01:39.672Z,195
2017-05-07T12:02:40.337Z,195
2017-05-07T12:03:40.997Z,195
2017-05-07T12:04:41.660Z,195
2017-05-07T12:05:42.321Z,190
2017-05-07T12:06:42.983Z,185
2017-05-07T12:07:43.644Z,185
2017-05-07T12:08:44.306Z,185
2017-05-07T12:09:45.268Z,185
2017-05-07T12:10:45.928Z,185
2017-05-07T12:11:46.589Z,185
2017-05-07T12:12:47.255Z,185
2017-05-07T12:13:47.911Z,185
2017-05-07T12:14:48.567Z,185
2017-05-07T12:15:49.227Z,185
2017-05-07T12:16:49.889Z,185
2017-05-07T12:17:50.547Z,185
2017-05-07T12:18:51.406Z,185
2017-05-07T12:19:52.067Z,190
2017-05-07T12:20:52.726Z,190
2017-05-07T12:21:53.385Z,190
2017-05-07T12:22:54.045Z,190
2017-05-07T12:23:54.705Z,195
2017-05-07T12:24:55.366Z,195
2017-05-07T12:25:56.024Z,200
2017-05-07T12:26:56.883Z,200
2017-05-07T12:27:57.544Z,195
2017-05-07T12:28:58.205Z,195
2017-05-07T12:29:58.865Z,195
2017-05-07T12:30:59.525Z,195
2017-05-07T12:32:00.186Z,195
2017-05-07T12:33:00.847Z,195
2017-05-07T12:34:01.507Z,195
2017-05-07T12:35:02.367Z,195
2017-05-07T12:36:03.025Z,195
2017-05-07T12:37:03.678Z,195
2017-05-07T12:38:04.337Z,195
2017-05-07T12:39:04.994Z,195
2017-05-07T12:40:05.656Z,195
2017-05-07T12:41:06.309Z,195
2017-05-07T12:42:06.963Z,195
2017-05-07T12:43:07.771Z,200
2017-05-07T12:44:08.432Z,205
2017-05-07T12:45:09.094Z,215
2017-05-07T12:46:09.750Z,210
2017-05-07T12:47:10.408Z,210
2017-05-07T12:48:11.066Z,210
2017-05-07T12:49:11.725Z,210
2017-05-07T12:50:12.382Z,210
2017-05-07T12:51:13.243Z,210
2017-05-07T12:52:13.902Z,210
2017-05-07T12:53:14.556Z,210
2017-05-07T12:54:15.213Z,210
2017-05-07T12:55:15.870Z,210
2017-05-07T12:56:16.524Z,210
2017-05-07T12:57:17.181Z,210
2017-05-07T12:58:17.847Z,210
2017-05-07T12:59:18.504Z,210
2017-05-07T13:00:19.462Z,220
2017-05-07T13:01:20.118Z,225
2017-05-07T13:02:20.777Z,230
2017-05-07T13:03:21.434Z,250
2017-05-07T13:04:22.090Z,255
2017-05-07T13:05:22.746Z,275
2017-05-07T13:06:23.404Z,300
2017-05-07T13:07:24.057Z,300
2017-05-07T13:08:24.916Z,345
2017-05-07T13:09:25.569Z,380
2017-05-07T13:10:26.226Z,400
2017-05-07T13:11:26.882Z,460
2017-05-07T13:12:27.535Z,525
2017-05-07T13:13:28.188Z,635
2017-05-07T13:14:28.838Z,695
2017-05-07T13:15:29.496Z,705
2017-05-07T13:16:30.354Z,770
2017-05-07T13:17:31.008Z,825
2017-05-07T13:18:31.665Z,895
2017-05-07T13:19:32.321Z,1010
2017-05-07T13:20:32.980Z,1025
2017-05-07T13:21:33.633Z,1090
2017-05-07T13:22:34.289Z,1125
2017-05-07T13:23:34.949Z,1120
2017-05-07T13:24:35.805Z,1185
2017-05-07T13:25:36.463Z,1210
2017-05-07T13:26:37.120Z,1180
2017-05-07T13:27:37.778Z,1200
2017-05-07T13:28:38.432Z,1270
2017-05-07T13:29:39.091Z,1255
2017-05-07T13:30:39.749Z,1250
2017-05-07T13:31:40.407Z,1285
2017-05-07T13:32:41.066Z,1355
2017-05-07T13:33:41.874Z,1350
2017-05-07T13:34:42.530Z,1310
2017-05-07T13:35:43.188Z,1285
2017-05-07T13:36:43.843Z,1250
2017-05-07T13:37:44.504Z,1250
2017-05-07T13:38:45.161Z,1235
2017-05-07T13:39:45.821Z,1265
2017-05-07T13:40:46.477Z,1325
2017-05-07T13:41:47.381Z,1235
2017-05-07T13:42:48.040Z,930
2017-05-07T13:43:48.698Z,770
2017-05-07T13:44:49.358Z,1020
2017-05-07T13:45:50.014Z,1170
2017-05-07T13:46:50.673Z,1130
2017-05-07T13:47:51.329Z,680
2017-05-07T13:48:51.986Z,200
2017-05-07T13:49:52.792Z,155
2017-05-07T13:50:53.448Z,150
2017-05-07T13:51:54.103Z,145
2017-05-07T13:52:54.757Z,140
2017-05-07T13:53:55.413Z,140
2017-05-07T13:54:56.068Z,140
2017-05-07T13:55:56.725Z,145
2017-05-07T13:56:57.376Z,145
2017-05-07T13:57:58.225Z,150
2017-05-07T13:58:58.883Z,150
2017-05-07T13:59:59.538Z,150
2017-05-07T14:01:00.192Z,155
2017-05-07T14:02:00.849Z,175
2017-05-07T14:03:01.501Z,410
2017-05-07T14:04:02.156Z,875
2017-05-07T14:05:02.812Z,1155
2017-05-07T14:06:03.768Z,1140
2017-05-07T14:07:04.423Z,1115
2017-05-07T14:08:05.079Z,1075
2017-05-07T14:09:05.730Z,1060
2017-05-07T14:10:06.337Z,1030
2017-05-07T14:11:06.992Z,570
2017-05-07T14:12:07.645Z,155
2017-05-07T14:13:08.300Z,120
2017-05-07T14:14:08.954Z,115
2017-05-07T14:15:09.808Z,115
2017-05-07T14:16:10.463Z,110
2017-05-07T14:17:11.110Z,110
2017-05-07T14:18:11.756Z,110
2017-05-07T14:19:12.409Z,110
2017-05-07T14:20:13.064Z,110
2017-05-07T14:21:13.714Z,105
2017-05-07T14:22:14.367Z,105
2017-05-07T14:23:15.470Z,105
2017-05-07T14:24:16.123Z,105
2017-05-07T14:25:16.777Z,105
2017-05-07T14:26:17.432Z,105